sensor_id;sensor_type;location;lat;lon;timestamp;P1;durP1;ratioP1;P2;durP2;ratioP2
23470;SDS011;11908;50.806;4.424;2022-07-05T00:00:59;5.38;;;2.65;;
23470;SDS011;11908;50.806;4.424;2022-07-05T00:03:25;5.60;;;2.25;;
23470;SDS011;11908;50.806;4.424;2022-07-05T00:05:51;4.38;;;2.30;;
23470;SDS011;11908;50.806;4.424;2022-07-05T00:08:17;4.63;;;2.35;;
23470;SDS011;11908;50.806;4.424;2022-07-05T00:10:43;4.07;;;2.22;;
23470;SDS011;11908;50.806;4.424;2022-07-05T00:13:09;4.78;;;2.05;;
23470;SDS011;11908;50.806;4.424;2022-07-05T00:15:35;3.95;;;2.40;;
23470;SDS011;11908;50.806;4.424;2022-07-05T00:18:01;5.05;;;2.33;;
23470;SDS011;11908;50.806;4.424;2022-07-05T00:20:26;2.15;;;1.95;;
23470;SDS011;11908;50.806;4.424;2022-07-05T00:22:52;4.70;;;2.13;;
23470;SDS011;11908;50.806;4.424;2022-07-05T00:25:18;3.50;;;2.53;;
23470;SDS011;11908;50.806;4.424;2022-07-05T00:27:44;5.78;;;2.40;;
23470;SDS011;11908;50.806;4.424;2022-07-05T00:30:10;7.60;;;2.33;;
23470;SDS011;11908;50.806;4.424;2022-07-05T00:32:37;2.72;;;2.42;;
23470;SDS011;11908;50.806;4.424;2022-07-05T00:35:04;2.55;;;2.30;;
23470;SDS011;11908;50.806;4.424;2022-07-05T00:37:30;3.75;;;2.50;;
23470;SDS011;11908;50.806;4.424;2022-07-05T00:39:56;2.25;;;2.05;;
23470;SDS011;11908;50.806;4.424;2022-07-05T00:42:21;3.70;;;2.25;;
23470;SDS011;11908;50.806;4.424;2022-07-05T00:44:47;5.95;;;2.47;;
23470;SDS011;11908;50.806;4.424;2022-07-05T00:47:13;5.45;;;2.47;;
23470;SDS011;11908;50.806;4.424;2022-07-05T00:49:39;3.97;;;2.47;;
23470;SDS011;11908;50.806;4.424;2022-07-05T00:52:06;2.55;;;2.35;;
23470;SDS011;11908;50.806;4.424;2022-07-05T00:54:33;2.75;;;2.40;;
23470;SDS011;11908;50.806;4.424;2022-07-05T00:57:00;5.63;;;2.35;;
23470;SDS011;11908;50.806;4.424;2022-07-05T00:59:27;4.60;;;2.60;;
23470;SDS011;11908;50.806;4.424;2022-07-05T01:01:53;6.63;;;2.60;;
23470;SDS011;11908;50.806;4.424;2022-07-05T01:04:19;4.57;;;2.42;;
23470;SDS011;11908;50.806;4.424;2022-07-05T01:06:46;5.28;;;2.70;;
23470;SDS011;11908;50.806;4.424;2022-07-05T01:09:13;5.63;;;2.60;;
23470;SDS011;11908;50.806;4.424;2022-07-05T01:11:42;6.85;;;2.47;;
23470;SDS011;11908;50.806;4.424;2022-07-05T01:14:09;3.03;;;2.47;;
23470;SDS011;11908;50.806;4.424;2022-07-05T01:16:41;3.35;;;2.28;;
23470;SDS011;11908;50.806;4.424;2022-07-05T01:19:07;5.57;;;2.60;;
23470;SDS011;11908;50.806;4.424;2022-07-05T01:21:38;4.00;;;2.55;;
23470;SDS011;11908;50.806;4.424;2022-07-05T01:24:06;5.78;;;2.80;;
23470;SDS011;11908;50.806;4.424;2022-07-05T01:26:33;3.90;;;2.67;;
23470;SDS011;11908;50.806;4.424;2022-07-05T01:28:59;3.33;;;2.70;;
23470;SDS011;11908;50.806;4.424;2022-07-05T01:31:24;3.97;;;2.40;;
23470;SDS011;11908;50.806;4.424;2022-07-05T01:33:50;3.03;;;2.63;;
23470;SDS011;11908;50.806;4.424;2022-07-05T01:36:16;2.85;;;2.22;;
23470;SDS011;11908;50.806;4.424;2022-07-05T01:38:43;2.45;;;2.25;;
23470;SDS011;11908;50.806;4.424;2022-07-05T01:41:08;3.05;;;2.38;;
23470;SDS011;11908;50.806;4.424;2022-07-05T01:43:34;5.82;;;2.58;;
23470;SDS011;11908;50.806;4.424;2022-07-05T01:46:00;3.85;;;2.40;;
23470;SDS011;11908;50.806;4.424;2022-07-05T01:48:28;2.92;;;2.60;;
23470;SDS011;11908;50.806;4.424;2022-07-05T01:51:07;9.00;;;3.00;;
23470;SDS011;11908;50.806;4.424;2022-07-05T01:53:49;4.55;;;2.67;;
23470;SDS011;11908;50.806;4.424;2022-07-05T01:56:17;4.97;;;2.90;;
23470;SDS011;11908;50.806;4.424;2022-07-05T01:58:43;2.72;;;2.50;;
23470;SDS011;11908;50.806;4.424;2022-07-05T02:01:10;5.18;;;2.80;;
23470;SDS011;11908;50.806;4.424;2022-07-05T02:03:38;4.57;;;2.33;;
23470;SDS011;11908;50.806;4.424;2022-07-05T02:06:05;3.10;;;2.50;;
23470;SDS011;11908;50.806;4.424;2022-07-05T02:08:32;2.90;;;2.53;;
23470;SDS011;11908;50.806;4.424;2022-07-05T02:10:58;3.28;;;2.97;;
23470;SDS011;11908;50.806;4.424;2022-07-05T02:13:24;4.20;;;2.72;;
23470;SDS011;11908;50.806;4.424;2022-07-05T02:15:50;4.53;;;2.75;;
23470;SDS011;11908;50.806;4.424;2022-07-05T02:18:15;4.93;;;2.92;;
23470;SDS011;11908;50.806;4.424;2022-07-05T02:20:41;7.45;;;2.70;;
23470;SDS011;11908;50.806;4.424;2022-07-05T02:23:07;9.00;;;3.05;;
23470;SDS011;11908;50.806;4.424;2022-07-05T02:25:33;7.55;;;2.97;;
23470;SDS011;11908;50.806;4.424;2022-07-05T02:27:59;11.07;;;3.60;;
23470;SDS011;11908;50.806;4.424;2022-07-05T02:30:26;3.53;;;2.70;;
23470;SDS011;11908;50.806;4.424;2022-07-05T02:32:51;5.40;;;2.90;;
23470;SDS011;11908;50.806;4.424;2022-07-05T02:35:17;4.55;;;3.05;;
23470;SDS011;11908;50.806;4.424;2022-07-05T02:37:43;4.13;;;2.53;;
23470;SDS011;11908;50.806;4.424;2022-07-05T02:40:09;3.10;;;2.63;;
23470;SDS011;11908;50.806;4.424;2022-07-05T02:42:36;5.55;;;2.75;;
23470;SDS011;11908;50.806;4.424;2022-07-05T02:45:03;5.18;;;3.00;;
23470;SDS011;11908;50.806;4.424;2022-07-05T02:47:29;5.68;;;3.15;;
23470;SDS011;11908;50.806;4.424;2022-07-05T02:49:56;3.17;;;2.80;;
23470;SDS011;11908;50.806;4.424;2022-07-05T02:52:29;2.85;;;2.60;;
23470;SDS011;11908;50.806;4.424;2022-07-05T02:54:54;3.60;;;2.80;;
23470;SDS011;11908;50.806;4.424;2022-07-05T02:57:20;4.88;;;2.67;;
23470;SDS011;11908;50.806;4.424;2022-07-05T02:59:46;5.72;;;2.95;;
23470;SDS011;11908;50.806;4.424;2022-07-05T03:02:12;3.60;;;3.05;;
23470;SDS011;11908;50.806;4.424;2022-07-05T03:04:37;5.70;;;3.20;;
23470;SDS011;11908;50.806;4.424;2022-07-05T03:07:03;4.40;;;3.58;;
23470;SDS011;11908;50.806;4.424;2022-07-05T03:09:29;3.60;;;2.92;;
23470;SDS011;11908;50.806;4.424;2022-07-05T03:11:55;3.72;;;3.20;;
23470;SDS011;11908;50.806;4.424;2022-07-05T03:14:20;4.18;;;3.00;;
23470;SDS011;11908;50.806;4.424;2022-07-05T03:16:46;3.47;;;2.95;;
23470;SDS011;11908;50.806;4.424;2022-07-05T03:19:11;11.88;;;3.00;;
23470;SDS011;11908;50.806;4.424;2022-07-05T03:21:37;4.97;;;3.22;;
23470;SDS011;11908;50.806;4.424;2022-07-05T03:24:03;5.28;;;3.20;;
23470;SDS011;11908;50.806;4.424;2022-07-05T03:26:29;5.63;;;2.70;;
23470;SDS011;11908;50.806;4.424;2022-07-05T03:28:54;2.83;;;2.45;;
23470;SDS011;11908;50.806;4.424;2022-07-05T03:31:20;2.63;;;2.42;;
23470;SDS011;11908;50.806;4.424;2022-07-05T03:33:46;6.10;;;2.72;;
23470;SDS011;11908;50.806;4.424;2022-07-05T03:36:12;3.92;;;3.03;;
23470;SDS011;11908;50.806;4.424;2022-07-05T03:38:37;3.60;;;3.00;;
23470;SDS011;11908;50.806;4.424;2022-07-05T03:41:03;3.70;;;2.50;;
23470;SDS011;11908;50.806;4.424;2022-07-05T03:43:29;8.40;;;2.90;;
23470;SDS011;11908;50.806;4.424;2022-07-05T03:45:55;6.97;;;3.60;;
23470;SDS011;11908;50.806;4.424;2022-07-05T03:48:20;3.92;;;2.70;;
23470;SDS011;11908;50.806;4.424;2022-07-05T03:50:46;6.28;;;2.90;;
23470;SDS011;11908;50.806;4.424;2022-07-05T03:53:12;3.60;;;2.78;;
23470;SDS011;11908;50.806;4.424;2022-07-05T03:55:38;5.60;;;3.00;;
23470;SDS011;11908;50.806;4.424;2022-07-05T03:58:04;3.70;;;2.85;;
23470;SDS011;11908;50.806;4.424;2022-07-05T04:00:29;3.33;;;2.45;;
23470;SDS011;11908;50.806;4.424;2022-07-05T04:02:55;3.08;;;2.63;;
23470;SDS011;11908;50.806;4.424;2022-07-05T04:05:21;3.22;;;2.63;;
23470;SDS011;11908;50.806;4.424;2022-07-05T04:07:54;3.20;;;2.60;;
23470;SDS011;11908;50.806;4.424;2022-07-05T04:10:21;4.28;;;2.70;;
23470;SDS011;11908;50.806;4.424;2022-07-05T04:12:47;5.20;;;3.05;;
23470;SDS011;11908;50.806;4.424;2022-07-05T04:15:13;3.33;;;2.72;;
23470;SDS011;11908;50.806;4.424;2022-07-05T04:18:13;7.53;;;2.78;;
23470;SDS011;11908;50.806;4.424;2022-07-05T04:20:31;7.43;;;2.80;;
23470;SDS011;11908;50.806;4.424;2022-07-05T04:22:57;3.60;;;2.80;;
23470;SDS011;11908;50.806;4.424;2022-07-05T04:25:23;5.22;;;2.53;;
23470;SDS011;11908;50.806;4.424;2022-07-05T04:27:53;4.05;;;2.50;;
23470;SDS011;11908;50.806;4.424;2022-07-05T04:30:20;4.82;;;2.63;;
23470;SDS011;11908;50.806;4.424;2022-07-05T04:32:48;3.20;;;2.33;;
23470;SDS011;11908;50.806;4.424;2022-07-05T04:35:14;3.97;;;2.28;;
23470;SDS011;11908;50.806;4.424;2022-07-05T04:37:39;4.25;;;1.90;;
23470;SDS011;11908;50.806;4.424;2022-07-05T04:40:06;3.03;;;1.65;;
23470;SDS011;11908;50.806;4.424;2022-07-05T04:42:33;3.97;;;1.73;;
23470;SDS011;11908;50.806;4.424;2022-07-05T04:44:59;1.83;;;1.50;;
23470;SDS011;11908;50.806;4.424;2022-07-05T04:47:25;1.67;;;1.40;;
23470;SDS011;11908;50.806;4.424;2022-07-05T04:49:51;2.38;;;1.60;;
23470;SDS011;11908;50.806;4.424;2022-07-05T04:52:17;4.55;;;1.65;;
23470;SDS011;11908;50.806;4.424;2022-07-05T04:54:43;5.00;;;1.63;;
23470;SDS011;11908;50.806;4.424;2022-07-05T04:57:09;1.90;;;1.50;;
23470;SDS011;11908;50.806;4.424;2022-07-05T04:59:34;2.08;;;1.42;;
23470;SDS011;11908;50.806;4.424;2022-07-05T05:02:00;2.90;;;1.40;;
23470;SDS011;11908;50.806;4.424;2022-07-05T05:04:25;5.93;;;1.90;;
23470;SDS011;11908;50.806;4.424;2022-07-05T05:06:51;2.70;;;1.70;;
23470;SDS011;11908;50.806;4.424;2022-07-05T05:09:17;5.88;;;1.75;;
23470;SDS011;11908;50.806;4.424;2022-07-05T05:11:42;3.72;;;1.80;;
23470;SDS011;11908;50.806;4.424;2022-07-05T05:14:08;3.70;;;1.60;;
23470;SDS011;11908;50.806;4.424;2022-07-05T05:16:34;3.30;;;1.48;;
23470;SDS011;11908;50.806;4.424;2022-07-05T05:18:59;2.55;;;1.73;;
23470;SDS011;11908;50.806;4.424;2022-07-05T05:21:25;2.00;;;1.55;;
23470;SDS011;11908;50.806;4.424;2022-07-05T05:23:51;4.18;;;1.50;;
23470;SDS011;11908;50.806;4.424;2022-07-05T05:26:16;5.30;;;1.58;;
23470;SDS011;11908;50.806;4.424;2022-07-05T05:28:42;6.07;;;1.70;;
23470;SDS011;11908;50.806;4.424;2022-07-05T05:31:09;5.00;;;1.60;;
23470;SDS011;11908;50.806;4.424;2022-07-05T05:33:34;2.25;;;1.40;;
23470;SDS011;11908;50.806;4.424;2022-07-05T05:36:00;3.90;;;1.40;;
23470;SDS011;11908;50.806;4.424;2022-07-05T05:38:27;2.15;;;1.23;;
23470;SDS011;11908;50.806;4.424;2022-07-05T05:40:52;3.85;;;1.25;;
23470;SDS011;11908;50.806;4.424;2022-07-05T05:43:18;3.80;;;1.10;;
23470;SDS011;11908;50.806;4.424;2022-07-05T05:45:44;3.47;;;0.98;;
23470;SDS011;11908;50.806;4.424;2022-07-05T05:48:10;4.43;;;1.65;;
23470;SDS011;11908;50.806;4.424;2022-07-05T05:50:36;4.22;;;1.35;;
23470;SDS011;11908;50.806;4.424;2022-07-05T05:53:06;3.60;;;1.10;;
23470;SDS011;11908;50.806;4.424;2022-07-05T05:55:32;3.58;;;1.35;;
23470;SDS011;11908;50.806;4.424;2022-07-05T05:58:17;4.68;;;1.58;;
23470;SDS011;11908;50.806;4.424;2022-07-05T06:00:45;3.25;;;1.45;;
23470;SDS011;11908;50.806;4.424;2022-07-05T06:03:13;5.78;;;1.30;;
23470;SDS011;11908;50.806;4.424;2022-07-05T06:05:42;5.00;;;1.38;;
23470;SDS011;11908;50.806;4.424;2022-07-05T06:08:07;5.38;;;1.27;;
23470;SDS011;11908;50.806;4.424;2022-07-05T06:10:33;2.35;;;1.50;;
23470;SDS011;11908;50.806;4.424;2022-07-05T06:13:02;4.07;;;1.55;;
23470;SDS011;11908;50.806;4.424;2022-07-05T06:15:29;6.03;;;1.70;;
23470;SDS011;11908;50.806;4.424;2022-07-05T06:17:55;5.60;;;1.65;;
23470;SDS011;11908;50.806;4.424;2022-07-05T06:20:25;4.75;;;1.80;;
23470;SDS011;11908;50.806;4.424;2022-07-05T06:23:02;3.83;;;1.30;;
23470;SDS011;11908;50.806;4.424;2022-07-05T06:25:28;6.75;;;1.75;;
23470;SDS011;11908;50.806;4.424;2022-07-05T06:27:56;3.67;;;1.60;;
23470;SDS011;11908;50.806;4.424;2022-07-05T06:30:25;5.38;;;1.80;;
23470;SDS011;11908;50.806;4.424;2022-07-05T06:32:51;5.40;;;1.85;;
23470;SDS011;11908;50.806;4.424;2022-07-05T06:35:18;4.93;;;1.38;;
23470;SDS011;11908;50.806;4.424;2022-07-05T06:37:48;5.30;;;1.63;;
23470;SDS011;11908;50.806;4.424;2022-07-05T06:40:23;4.78;;;1.70;;
23470;SDS011;11908;50.806;4.424;2022-07-05T06:42:51;5.68;;;1.83;;
23470;SDS011;11908;50.806;4.424;2022-07-05T06:45:19;4.82;;;1.70;;
23470;SDS011;11908;50.806;4.424;2022-07-05T06:47:53;5.97;;;1.80;;
23470;SDS011;11908;50.806;4.424;2022-07-05T06:50:38;8.02;;;1.98;;
23470;SDS011;11908;50.806;4.424;2022-07-05T06:53:05;9.15;;;2.20;;
23470;SDS011;11908;50.806;4.424;2022-07-05T06:55:31;8.90;;;1.48;;
23470;SDS011;11908;50.806;4.424;2022-07-05T06:58:01;6.55;;;1.90;;
23470;SDS011;11908;50.806;4.424;2022-07-05T07:00:29;4.57;;;1.95;;
23470;SDS011;11908;50.806;4.424;2022-07-05T07:02:55;6.97;;;2.00;;
23470;SDS011;11908;50.806;4.424;2022-07-05T07:05:21;4.32;;;1.65;;
23470;SDS011;11908;50.806;4.424;2022-07-05T07:07:47;5.90;;;1.65;;
23470;SDS011;11908;50.806;4.424;2022-07-05T07:10:31;5.82;;;1.98;;
23470;SDS011;11908;50.806;4.424;2022-07-05T07:12:57;6.05;;;1.70;;
23470;SDS011;11908;50.806;4.424;2022-07-05T07:15:23;7.50;;;1.83;;
23470;SDS011;11908;50.806;4.424;2022-07-05T07:17:49;10.93;;;2.30;;
23470;SDS011;11908;50.806;4.424;2022-07-05T07:20:15;10.25;;;2.20;;
23470;SDS011;11908;50.806;4.424;2022-07-05T07:22:40;6.20;;;1.77;;
23470;SDS011;11908;50.806;4.424;2022-07-05T07:25:06;9.38;;;1.80;;
23470;SDS011;11908;50.806;4.424;2022-07-05T07:27:40;7.65;;;2.38;;
23470;SDS011;11908;50.806;4.424;2022-07-05T07:30:13;7.57;;;2.30;;
23470;SDS011;11908;50.806;4.424;2022-07-05T07:32:40;8.82;;;2.08;;
23470;SDS011;11908;50.806;4.424;2022-07-05T07:35:07;7.05;;;2.45;;
23470;SDS011;11908;50.806;4.424;2022-07-05T07:37:33;12.32;;;2.30;;
23470;SDS011;11908;50.806;4.424;2022-07-05T07:39:59;8.18;;;2.30;;
23470;SDS011;11908;50.806;4.424;2022-07-05T07:42:26;7.38;;;2.50;;
23470;SDS011;11908;50.806;4.424;2022-07-05T07:44:52;11.55;;;2.53;;
23470;SDS011;11908;50.806;4.424;2022-07-05T07:47:18;9.02;;;2.20;;
23470;SDS011;11908;50.806;4.424;2022-07-05T07:49:43;10.48;;;2.00;;
23470;SDS011;11908;50.806;4.424;2022-07-05T07:52:09;9.40;;;2.78;;
23470;SDS011;11908;50.806;4.424;2022-07-05T07:54:35;9.25;;;2.70;;
23470;SDS011;11908;50.806;4.424;2022-07-05T07:57:00;10.68;;;2.40;;
23470;SDS011;11908;50.806;4.424;2022-07-05T07:59:29;5.65;;;2.20;;
23470;SDS011;11908;50.806;4.424;2022-07-05T08:01:55;8.57;;;1.88;;
23470;SDS011;11908;50.806;4.424;2022-07-05T08:04:20;9.30;;;2.13;;
23470;SDS011;11908;50.806;4.424;2022-07-05T08:06:46;8.45;;;2.97;;
23470;SDS011;11908;50.806;4.424;2022-07-05T08:09:12;9.10;;;2.30;;
23470;SDS011;11908;50.806;4.424;2022-07-05T08:11:39;8.63;;;1.92;;
23470;SDS011;11908;50.806;4.424;2022-07-05T08:14:04;4.18;;;1.80;;
23470;SDS011;11908;50.806;4.424;2022-07-05T08:16:30;10.23;;;2.78;;
23470;SDS011;11908;50.806;4.424;2022-07-05T08:18:56;9.82;;;2.10;;
23470;SDS011;11908;50.806;4.424;2022-07-05T08:21:40;7.03;;;2.20;;
23470;SDS011;11908;50.806;4.424;2022-07-05T08:24:06;6.50;;;2.45;;
23470;SDS011;11908;50.806;4.424;2022-07-05T08:26:34;9.45;;;2.45;;
23470;SDS011;11908;50.806;4.424;2022-07-05T08:29:01;8.88;;;2.20;;
23470;SDS011;11908;50.806;4.424;2022-07-05T08:31:29;8.90;;;2.17;;
23470;SDS011;11908;50.806;4.424;2022-07-05T08:33:56;7.07;;;2.85;;
23470;SDS011;11908;50.806;4.424;2022-07-05T08:36:22;5.80;;;2.47;;
23470;SDS011;11908;50.806;4.424;2022-07-05T08:38:48;7.32;;;2.47;;
23470;SDS011;11908;50.806;4.424;2022-07-05T08:41:13;11.52;;;2.60;;
23470;SDS011;11908;50.806;4.424;2022-07-05T08:43:44;7.45;;;2.45;;
23470;SDS011;11908;50.806;4.424;2022-07-05T08:46:11;9.38;;;2.15;;
23470;SDS011;11908;50.806;4.424;2022-07-05T08:48:39;7.43;;;2.55;;
23470;SDS011;11908;50.806;4.424;2022-07-05T08:51:11;10.60;;;2.53;;
23470;SDS011;11908;50.806;4.424;2022-07-05T08:53:38;7.47;;;2.28;;
23470;SDS011;11908;50.806;4.424;2022-07-05T08:56:05;8.13;;;2.38;;
23470;SDS011;11908;50.806;4.424;2022-07-05T08:58:33;9.68;;;2.53;;
23470;SDS011;11908;50.806;4.424;2022-07-05T09:01:00;6.50;;;2.42;;
23470;SDS011;11908;50.806;4.424;2022-07-05T09:03:29;6.32;;;1.60;;
23470;SDS011;11908;50.806;4.424;2022-07-05T09:06:01;6.78;;;1.83;;
23470;SDS011;11908;50.806;4.424;2022-07-05T09:08:32;5.68;;;1.45;;
23470;SDS011;11908;50.806;4.424;2022-07-05T09:11:04;5.10;;;1.67;;
23470;SDS011;11908;50.806;4.424;2022-07-05T09:13:41;3.40;;;1.63;;
23470;SDS011;11908;50.806;4.424;2022-07-05T09:16:12;6.38;;;1.83;;
23470;SDS011;11908;50.806;4.424;2022-07-05T09:18:42;7.90;;;1.92;;
23470;SDS011;11908;50.806;4.424;2022-07-05T09:21:22;4.32;;;1.67;;
23470;SDS011;11908;50.806;4.424;2022-07-05T09:23:55;6.45;;;1.50;;
23470;SDS011;11908;50.806;4.424;2022-07-05T09:28:57;5.35;;;1.27;;
23470;SDS011;11908;50.806;4.424;2022-07-05T09:31:26;4.85;;;1.55;;
23470;SDS011;11908;50.806;4.424;2022-07-05T09:34:03;3.13;;;1.40;;
23470;SDS011;11908;50.806;4.424;2022-07-05T09:39:42;5.68;;;1.77;;
23470;SDS011;11908;50.806;4.424;2022-07-05T09:44:55;6.10;;;1.90;;
23470;SDS011;11908;50.806;4.424;2022-07-05T09:47:26;4.97;;;2.45;;
23470;SDS011;11908;50.806;4.424;2022-07-05T09:49:54;8.57;;;2.47;;
23470;SDS011;11908;50.806;4.424;2022-07-05T09:52:28;6.43;;;2.67;;
23470;SDS011;11908;50.806;4.424;2022-07-05T09:57:29;12.23;;;3.08;;
23470;SDS011;11908;50.806;4.424;2022-07-05T09:59:59;10.20;;;3.00;;
23470;SDS011;11908;50.806;4.424;2022-07-05T10:05:19;9.68;;;2.70;;
23470;SDS011;11908;50.806;4.424;2022-07-05T10:07:49;9.85;;;2.83;;
23470;SDS011;11908;50.806;4.424;2022-07-05T10:12:46;4.75;;;2.80;;
23470;SDS011;11908;50.806;4.424;2022-07-05T10:15:14;8.23;;;3.10;;
23470;SDS011;11908;50.806;4.424;2022-07-05T10:17:47;5.85;;;3.28;;
23470;SDS011;11908;50.806;4.424;2022-07-05T10:20:39;7.20;;;3.45;;
23470;SDS011;11908;50.806;4.424;2022-07-05T10:25:37;8.43;;;4.05;;
23470;SDS011;11908;50.806;4.424;2022-07-05T10:28:04;10.88;;;2.95;;
23470;SDS011;11908;50.806;4.424;2022-07-05T10:30:30;6.60;;;3.53;;
23470;SDS011;11908;50.806;4.424;2022-07-05T10:32:57;6.00;;;3.33;;
23470;SDS011;11908;50.806;4.424;2022-07-05T10:35:24;6.35;;;2.22;;
23470;SDS011;11908;50.806;4.424;2022-07-05T10:37:50;6.03;;;2.40;;
23470;SDS011;11908;50.806;4.424;2022-07-05T10:40:16;6.65;;;2.58;;
23470;SDS011;11908;50.806;4.424;2022-07-05T10:42:47;7.55;;;2.53;;
23470;SDS011;11908;50.806;4.424;2022-07-05T10:45:24;6.28;;;3.08;;
23470;SDS011;11908;50.806;4.424;2022-07-05T10:53:11;5.13;;;1.98;;
23470;SDS011;11908;50.806;4.424;2022-07-05T10:55:47;2.88;;;1.75;;
23470;SDS011;11908;50.806;4.424;2022-07-05T11:00:45;4.07;;;1.92;;
23470;SDS011;11908;50.806;4.424;2022-07-05T11:06:27;3.50;;;1.80;;
23470;SDS011;11908;50.806;4.424;2022-07-05T11:11:35;5.78;;;1.50;;
23470;SDS011;11908;50.806;4.424;2022-07-05T11:14:36;4.43;;;1.60;;
23470;SDS011;11908;50.806;4.424;2022-07-05T11:17:14;3.22;;;1.30;;
23470;SDS011;11908;50.806;4.424;2022-07-05T11:20:00;6.13;;;1.20;;
23470;SDS011;11908;50.806;4.424;2022-07-05T11:22:34;8.32;;;1.35;;
23470;SDS011;11908;50.806;4.424;2022-07-05T11:25:01;2.50;;;1.27;;
23470;SDS011;11908;50.806;4.424;2022-07-05T11:27:31;4.25;;;1.40;;
23470;SDS011;11908;50.806;4.424;2022-07-05T11:29:58;5.72;;;1.35;;
23470;SDS011;11908;50.806;4.424;2022-07-05T11:35:11;3.50;;;1.35;;
23470;SDS011;11908;50.806;4.424;2022-07-05T11:40:37;6.55;;;1.98;;
23470;SDS011;11908;50.806;4.424;2022-07-05T11:43:03;4.97;;;1.25;;
23470;SDS011;11908;50.806;4.424;2022-07-05T11:45:32;5.45;;;1.30;;
23470;SDS011;11908;50.806;4.424;2022-07-05T11:47:58;3.15;;;1.02;;
23470;SDS011;11908;50.806;4.424;2022-07-05T11:50:28;4.45;;;1.48;;
23470;SDS011;11908;50.806;4.424;2022-07-05T11:52:55;3.78;;;1.30;;
23470;SDS011;11908;50.806;4.424;2022-07-05T11:55:23;9.13;;;1.50;;
23470;SDS011;11908;50.806;4.424;2022-07-05T11:57:51;11.77;;;1.50;;
23470;SDS011;11908;50.806;4.424;2022-07-05T12:00:39;3.65;;;0.88;;
23470;SDS011;11908;50.806;4.424;2022-07-05T12:03:12;4.88;;;1.30;;
23470;SDS011;11908;50.806;4.424;2022-07-05T12:05:38;2.70;;;1.17;;
23470;SDS011;11908;50.806;4.424;2022-07-05T12:08:05;7.10;;;1.55;;
23470;SDS011;11908;50.806;4.424;2022-07-05T12:10:31;3.50;;;1.15;;
23470;SDS011;11908;50.806;4.424;2022-07-05T12:13:15;3.60;;;1.50;;
23470;SDS011;11908;50.806;4.424;2022-07-05T12:15:41;5.03;;;1.40;;
23470;SDS011;11908;50.806;4.424;2022-07-05T12:18:07;9.23;;;1.40;;
23470;SDS011;11908;50.806;4.424;2022-07-05T12:20:37;2.60;;;1.23;;
23470;SDS011;11908;50.806;4.424;2022-07-05T12:23:04;7.00;;;1.60;;
23470;SDS011;11908;50.806;4.424;2022-07-05T12:25:31;4.70;;;1.70;;
23470;SDS011;11908;50.806;4.424;2022-07-05T12:27:58;1.65;;;1.30;;
23470;SDS011;11908;50.806;4.424;2022-07-05T12:30:27;6.05;;;1.58;;
23470;SDS011;11908;50.806;4.424;2022-07-05T12:32:54;10.52;;;1.80;;
23470;SDS011;11908;50.806;4.424;2022-07-05T12:35:27;4.85;;;1.73;;
23470;SDS011;11908;50.806;4.424;2022-07-05T12:37:53;5.00;;;1.80;;
23470;SDS011;11908;50.806;4.424;2022-07-05T12:40:20;4.57;;;1.50;;
23470;SDS011;11908;50.806;4.424;2022-07-05T12:42:47;5.15;;;1.67;;
23470;SDS011;11908;50.806;4.424;2022-07-05T12:45:25;4.80;;;1.92;;
23470;SDS011;11908;50.806;4.424;2022-07-05T12:47:52;4.43;;;1.83;;
23470;SDS011;11908;50.806;4.424;2022-07-05T12:50:20;2.45;;;1.67;;
23470;SDS011;11908;50.806;4.424;2022-07-05T12:55:51;7.13;;;1.95;;
23470;SDS011;11908;50.806;4.424;2022-07-05T12:58:49;2.72;;;1.70;;
23470;SDS011;11908;50.806;4.424;2022-07-05T13:04:05;7.05;;;2.45;;
23470;SDS011;11908;50.806;4.424;2022-07-05T13:14:50;4.18;;;1.92;;
23470;SDS011;11908;50.806;4.424;2022-07-05T13:17:18;8.40;;;2.20;;
23470;SDS011;11908;50.806;4.424;2022-07-05T13:19:50;6.35;;;2.25;;
23470;SDS011;11908;50.806;4.424;2022-07-05T13:22:17;8.68;;;1.90;;
23470;SDS011;11908;50.806;4.424;2022-07-05T13:24:43;9.18;;;2.00;;
23470;SDS011;11908;50.806;4.424;2022-07-05T13:27:10;6.70;;;1.95;;
23470;SDS011;11908;50.806;4.424;2022-07-05T13:29:37;10.55;;;2.20;;
23470;SDS011;11908;50.806;4.424;2022-07-05T13:32:03;6.72;;;1.60;;
23470;SDS011;11908;50.806;4.424;2022-07-05T13:34:29;5.38;;;1.60;;
23470;SDS011;11908;50.806;4.424;2022-07-05T13:36:55;5.57;;;1.80;;
23470;SDS011;11908;50.806;4.424;2022-07-05T13:39:23;5.07;;;1.85;;
23470;SDS011;11908;50.806;4.424;2022-07-05T13:41:50;9.73;;;1.80;;
23470;SDS011;11908;50.806;4.424;2022-07-05T13:44:17;7.55;;;2.65;;
23470;SDS011;11908;50.806;4.424;2022-07-05T13:46:44;7.05;;;1.85;;
23470;SDS011;11908;50.806;4.424;2022-07-05T13:49:09;6.10;;;1.40;;
23470;SDS011;11908;50.806;4.424;2022-07-05T13:51:35;7.07;;;1.88;;
23470;SDS011;11908;50.806;4.424;2022-07-05T13:54:01;4.28;;;1.27;;
23470;SDS011;11908;50.806;4.424;2022-07-05T13:56:27;6.78;;;1.70;;
23470;SDS011;11908;50.806;4.424;2022-07-05T13:58:53;5.25;;;1.08;;
23470;SDS011;11908;50.806;4.424;2022-07-05T14:01:20;9.48;;;1.35;;
23470;SDS011;11908;50.806;4.424;2022-07-05T14:03:51;6.85;;;1.85;;
23470;SDS011;11908;50.806;4.424;2022-07-05T14:06:17;5.82;;;1.40;;
23470;SDS011;11908;50.806;4.424;2022-07-05T14:08:43;4.60;;;1.35;;
23470;SDS011;11908;50.806;4.424;2022-07-05T14:11:09;3.10;;;1.20;;
23470;SDS011;11908;50.806;4.424;2022-07-05T14:13:36;6.18;;;1.92;;
23470;SDS011;11908;50.806;4.424;2022-07-05T14:16:02;3.47;;;1.25;;
23470;SDS011;11908;50.806;4.424;2022-07-05T14:18:28;5.88;;;1.50;;
23470;SDS011;11908;50.806;4.424;2022-07-05T14:20:53;8.43;;;1.30;;
23470;SDS011;11908;50.806;4.424;2022-07-05T14:23:19;6.15;;;1.48;;
23470;SDS011;11908;50.806;4.424;2022-07-05T14:25:45;5.10;;;1.35;;
23470;SDS011;11908;50.806;4.424;2022-07-05T14:28:11;5.47;;;1.35;;
23470;SDS011;11908;50.806;4.424;2022-07-05T14:30:37;4.22;;;1.13;;
23470;SDS011;11908;50.806;4.424;2022-07-05T14:33:04;5.03;;;1.23;;
23470;SDS011;11908;50.806;4.424;2022-07-05T14:35:30;5.25;;;1.50;;
23470;SDS011;11908;50.806;4.424;2022-07-05T14:37:57;3.42;;;1.40;;
23470;SDS011;11908;50.806;4.424;2022-07-05T14:40:24;5.85;;;1.35;;
23470;SDS011;11908;50.806;4.424;2022-07-05T14:42:50;3.97;;;1.20;;
23470;SDS011;11908;50.806;4.424;2022-07-05T14:45:19;3.00;;;1.10;;
23470;SDS011;11908;50.806;4.424;2022-07-05T14:47:45;8.05;;;1.30;;
23470;SDS011;11908;50.806;4.424;2022-07-05T14:50:11;2.88;;;0.93;;
23470;SDS011;11908;50.806;4.424;2022-07-05T14:52:38;17.23;;;1.75;;
23470;SDS011;11908;50.806;4.424;2022-07-05T14:55:03;4.82;;;1.10;;
23470;SDS011;11908;50.806;4.424;2022-07-05T14:57:29;8.02;;;1.70;;
23470;SDS011;11908;50.806;4.424;2022-07-05T14:59:55;7.72;;;1.65;;
23470;SDS011;11908;50.806;4.424;2022-07-05T15:02:21;6.38;;;1.20;;
23470;SDS011;11908;50.806;4.424;2022-07-05T15:04:46;3.13;;;1.25;;
23470;SDS011;11908;50.806;4.424;2022-07-05T15:07:12;5.10;;;1.35;;
23470;SDS011;11908;50.806;4.424;2022-07-05T15:09:37;5.43;;;1.10;;
23470;SDS011;11908;50.806;4.424;2022-07-05T15:12:03;2.90;;;1.13;;
23470;SDS011;11908;50.806;4.424;2022-07-05T15:14:29;6.22;;;1.10;;
23470;SDS011;11908;50.806;4.424;2022-07-05T15:16:55;3.80;;;1.10;;
23470;SDS011;11908;50.806;4.424;2022-07-05T15:19:22;6.93;;;1.30;;
23470;SDS011;11908;50.806;4.424;2022-07-05T15:21:48;2.17;;;1.00;;
23470;SDS011;11908;50.806;4.424;2022-07-05T15:24:14;3.25;;;1.20;;
23470;SDS011;11908;50.806;4.424;2022-07-05T15:26:41;4.28;;;1.42;;
23470;SDS011;11908;50.806;4.424;2022-07-05T15:29:08;4.00;;;1.30;;
23470;SDS011;11908;50.806;4.424;2022-07-05T15:31:34;4.18;;;1.48;;
23470;SDS011;11908;50.806;4.424;2022-07-05T15:34:02;2.40;;;1.20;;
23470;SDS011;11908;50.806;4.424;2022-07-05T15:36:28;4.63;;;1.08;;
23470;SDS011;11908;50.806;4.424;2022-07-05T15:38:58;2.85;;;0.90;;
23470;SDS011;11908;50.806;4.424;2022-07-05T15:41:28;2.15;;;1.10;;
23470;SDS011;11908;50.806;4.424;2022-07-05T15:43:57;3.75;;;1.20;;